createdAt,value
2018-11-01T07:05:46.275Z,42.23
2018-11-01T07:08:14.469Z,47.70
2018-11-01T07:10:42.687Z,43.77
2018-11-01T07:13:10.954Z,41.40
2018-11-01T07:15:39.176Z,41.10
2018-11-01T07:18:07.404Z,41.23
2018-11-01T07:20:35.623Z,39.53
2018-11-01T07:23:03.860Z,41.07
2018-11-01T07:25:32.179Z,41.73
2018-11-01T07:28:00.358Z,39.17
2018-11-01T07:30:28.577Z,41.80
2018-11-01T07:32:56.864Z,40.00
2018-11-01T07:35:25.088Z,39.57
2018-11-01T07:37:53.326Z,39.07
2018-11-01T07:40:21.536Z,38.30
2018-11-01T07:42:49.772Z,40.77
2018-11-01T07:45:18.025Z,39.13
2018-11-01T07:47:46.536Z,40.00
2018-11-01T07:50:15.089Z,40.13
2018-11-01T07:52:43.408Z,38.07
2018-11-01T07:55:12.871Z,36.73
2018-11-01T07:57:41.113Z,37.43
2018-11-01T08:00:11.343Z,36.23
2018-11-01T08:02:39.576Z,36.07
2018-11-01T08:05:08.955Z,33.33
2018-11-01T08:07:37.240Z,35.77
2018-11-01T08:10:08.121Z,35.67
2018-11-01T08:12:36.362Z,33.73
2018-11-01T08:15:05.897Z,35.23
2018-11-01T08:17:34.124Z,37.80
2018-11-01T08:20:02.535Z,36.83
2018-11-01T08:22:30.613Z,37.40
2018-11-01T08:24:58.844Z,37.27
2018-11-01T08:27:27.147Z,38.37
2018-11-01T08:29:55.393Z,38.00
2018-11-01T08:32:23.648Z,37.47
2018-11-01T08:34:51.896Z,37.20
2018-11-01T08:37:20.140Z,36.37
2018-11-01T08:39:48.375Z,36.10
2018-11-01T08:42:16.588Z,32.73
2018-11-01T08:44:44.829Z,62.17
2018-11-01T08:47:13.044Z,34.13
2018-11-01T08:49:41.288Z,32.80
2018-11-01T08:52:09.512Z,33.30
2018-11-01T08:54:37.744Z,33.03
2018-11-01T08:57:06.364Z,30.03
2018-11-01T08:59:34.636Z,28.37
2018-11-01T09:02:02.865Z,28.97
2018-11-01T09:04:31.221Z,26.57
2018-11-01T09:06:59.441Z,26.83
2018-11-01T09:09:27.695Z,26.17
2018-11-01T09:11:55.920Z,26.83
2018-11-01T09:14:24.195Z,26.37
2018-11-01T09:16:52.425Z,24.47
2018-11-01T09:19:20.685Z,25.13
2018-11-01T09:21:48.896Z,25.00
2018-11-01T09:24:17.145Z,23.80
2018-11-01T09:26:45.434Z,24.97
2018-11-01T09:29:13.648Z,23.57
2018-11-01T09:31:41.876Z,22.37
2018-11-01T09:34:10.192Z,21.47
2018-11-01T09:36:38.430Z,21.40
2018-11-01T09:39:08.584Z,19.70
2018-11-01T09:41:36.814Z,19.63
2018-11-01T09:44:05.100Z,20.07
2018-11-01T09:46:33.725Z,21.40
2018-11-01T09:49:01.872Z,18.93
2018-11-01T09:51:30.128Z,18.03
2018-11-01T09:53:58.377Z,19.50
2018-11-01T09:56:26.984Z,20.33
2018-11-01T09:58:55.185Z,17.90
2018-11-01T10:01:23.400Z,19.57
2018-11-01T10:03:51.632Z,17.93
2018-11-01T10:06:19.900Z,18.13
2018-11-01T10:08:48.132Z,18.20
2018-11-01T10:11:16.378Z,15.47
2018-11-01T10:13:44.630Z,17.10
2018-11-01T10:16:13.001Z,18.07
2018-11-01T10:18:41.123Z,19.40
2018-11-01T10:21:09.480Z,17.30
2018-11-01T10:23:37.641Z,15.80
2018-11-01T10:26:05.901Z,15.10
2018-11-01T10:28:34.138Z,15.27
2018-11-01T10:31:02.384Z,16.70
2018-11-01T10:33:30.649Z,15.40
2018-11-01T10:35:58.904Z,16.03
2018-11-01T10:38:27.135Z,14.07
2018-11-01T10:40:55.504Z,14.80
2018-11-01T10:43:23.673Z,16.13
2018-11-01T10:45:51.913Z,14.40
2018-11-01T10:48:20.140Z,14.53
2018-11-01T10:50:48.385Z,17.07
2018-11-01T10:53:16.625Z,15.27
2018-11-01T10:55:44.872Z,15.57
2018-11-01T10:58:13.115Z,14.73
2018-11-01T11:00:47.001Z,14.77
2018-11-01T11:03:15.167Z,14.10
2018-11-01T11:05:43.421Z,14.90
2018-11-01T11:08:11.662Z,15.50
2018-11-01T11:10:39.899Z,16.63
2018-11-01T11:13:08.133Z,14.30
2018-11-01T11:15:36.389Z,13.90
2018-11-01T11:18:04.628Z,17.43
2018-11-01T11:20:33.073Z,16.30
2018-11-01T11:23:01.124Z,16.17
2018-11-01T11:25:29.376Z,15.07
2018-11-01T11:27:57.613Z,16.13
2018-11-01T11:30:26.016Z,15.87
2018-11-01T11:32:54.143Z,14.77
2018-11-01T11:35:22.439Z,14.70
2018-11-01T11:37:50.634Z,14.63
2018-11-01T11:40:18.888Z,15.20
2018-11-01T11:42:47.136Z,14.90
2018-11-01T11:45:15.391Z,13.27
2018-11-01T11:47:43.729Z,15.00
2018-11-01T11:50:13.064Z,14.50
2018-11-01T11:52:42.145Z,14.07
2018-11-01T11:55:11.071Z,14.73
2018-11-01T11:57:39.613Z,14.97
2018-11-01T12:00:09.885Z,13.80
2018-11-01T12:02:38.157Z,13.63
2018-11-01T12:05:06.904Z,15.17
2018-11-01T12:07:35.152Z,15.43
2018-11-01T12:10:03.385Z,12.73
2018-11-01T12:12:31.640Z,14.33
2018-11-01T12:14:59.952Z,14.20
2018-11-01T12:17:28.204Z,14.43
2018-11-01T12:19:56.437Z,14.20
2018-11-01T12:22:24.788Z,13.50
2018-11-01T12:24:52.953Z,15.30
2018-11-01T12:27:21.196Z,13.23
2018-11-01T12:29:49.437Z,14.53
2018-11-01T12:32:17.712Z,14.03
2018-11-01T12:34:45.953Z,13.20
2018-11-01T12:37:14.232Z,14.57
2018-11-01T12:39:42.474Z,15.23
2018-11-01T12:42:10.737Z,14.27
2018-11-01T12:44:38.956Z,17.33
2018-11-01T12:47:07.204Z,15.23
2018-11-01T12:49:35.497Z,15.83
2018-11-01T12:52:03.719Z,15.13
2018-11-01T12:54:31.956Z,16.47
2018-11-01T12:57:00.208Z,15.77
2018-11-01T12:59:28.453Z,16.20
2018-11-01T13:01:56.707Z,18.27
2018-11-01T13:04:24.934Z,17.37
2018-11-01T13:06:53.212Z,15.57
2018-11-01T13:09:21.450Z,16.70
2018-11-01T13:11:49.723Z,16.57
2018-11-01T13:14:17.960Z,32.10
2018-11-01T13:16:46.213Z,21.70
2018-11-01T13:19:14.441Z,17.43
2018-11-01T13:21:42.708Z,16.90
2018-11-01T13:24:10.941Z,15.87
2018-11-01T13:26:39.204Z,16.27
2018-11-01T13:29:07.446Z,16.27
2018-11-01T13:31:35.692Z,14.87
2018-11-01T13:34:03.934Z,15.03
2018-11-01T13:36:32.241Z,14.87
2018-11-01T13:39:00.498Z,15.63
2018-11-01T13:41:28.806Z,14.23
2018-11-01T13:43:57.032Z,15.20
2018-11-01T13:46:25.339Z,14.87
2018-11-01T13:48:53.545Z,14.07
2018-11-01T13:51:21.778Z,22.77
2018-11-01T13:53:50.028Z,16.03
2018-11-01T13:56:18.295Z,14.33
2018-11-01T13:58:46.537Z,13.70
2018-11-01T14:01:14.773Z,14.70
2018-11-01T14:03:43.099Z,14.30
2018-11-01T14:06:11.382Z,14.47
2018-11-01T14:08:39.602Z,14.43
2018-11-01T14:11:07.844Z,14.30
2018-11-01T14:13:36.201Z,16.90
2018-11-01T14:16:04.380Z,16.30
2018-11-01T14:18:32.635Z,16.77
2018-11-01T14:21:00.872Z,17.97
2018-11-01T14:23:29.121Z,17.10
2018-11-01T14:25:57.360Z,15.37
2018-11-01T14:28:25.601Z,14.67
2018-11-01T14:30:53.864Z,13.93
2018-11-01T14:33:22.133Z,14.30
2018-11-01T14:35:50.372Z,14.77
2018-11-01T14:38:18.645Z,14.53
2018-11-01T14:40:46.876Z,13.50
2018-11-01T14:43:15.156Z,14.83
2018-11-01T14:45:43.395Z,15.30
2018-11-01T14:48:11.653Z,14.30
2018-11-01T14:50:39.900Z,14.43
2018-11-01T14:53:08.712Z,14.97
2018-11-01T14:55:37.649Z,13.17
2018-11-01T14:58:06.227Z,14.77
2018-11-01T15:00:32.924Z,13.63
2018-11-01T15:03:01.200Z,13.93
2018-11-01T15:05:29.462Z,13.67
2018-11-01T15:07:57.733Z,15.00
2018-11-01T15:10:25.972Z,16.20
2018-11-01T15:12:54.270Z,17.50
2018-11-01T15:15:22.472Z,19.97
2018-11-01T15:17:50.730Z,19.93
2018-11-01T15:20:18.959Z,18.10
2018-11-01T15:22:47.208Z,18.27
2018-11-01T15:25:15.453Z,17.93
2018-11-01T15:27:43.712Z,21.60
2018-11-01T15:30:13.882Z,19.80
2018-11-01T15:32:42.158Z,21.33
2018-11-01T15:35:10.413Z,21.17
2018-11-01T15:37:38.674Z,21.93
2018-11-01T15:40:09.724Z,21.87
2018-11-01T15:42:37.944Z,19.43
2018-11-01T15:45:07.348Z,17.13
2018-11-01T15:47:35.616Z,17.80
2018-11-01T15:50:04.142Z,17.50
2018-11-01T15:52:32.464Z,16.87
2018-11-01T15:55:00.716Z,16.13
2018-11-01T15:57:28.960Z,15.67
2018-11-01T15:59:57.233Z,16.67
2018-11-01T16:02:25.548Z,18.30
2018-11-01T16:04:53.716Z,23.03
2018-11-01T16:07:21.953Z,20.07
2018-11-01T16:09:50.206Z,18.30
2018-11-01T16:12:18.444Z,17.70
2018-11-01T16:14:46.707Z,20.50
2018-11-01T16:17:14.943Z,20.83
2018-11-01T16:19:43.228Z,21.50
2018-11-01T16:22:11.464Z,28.17
2018-11-01T16:24:39.730Z,25.20
2018-11-01T16:27:08.091Z,23.43
2018-11-01T16:29:36.228Z,23.67
2018-11-01T16:32:04.532Z,20.80
2018-11-01T16:34:32.799Z,20.60
2018-11-01T16:37:01.070Z,19.47
2018-11-01T16:39:29.302Z,18.10
2018-11-01T16:41:57.596Z,18.33
2018-11-01T16:44:25.804Z,19.20
2018-11-01T16:46:54.044Z,18.03
2018-11-01T16:49:22.300Z,16.87
2018-11-01T16:51:50.535Z,17.40
2018-11-01T16:54:18.805Z,18.40
2018-11-01T16:56:47.041Z,18.97
2018-11-01T16:59:15.284Z,18.63
2018-11-01T17:01:43.543Z,17.23
2018-11-01T17:04:11.816Z,17.57
2018-11-01T17:06:40.037Z,16.63
2018-11-01T17:09:09.612Z,15.63
2018-11-01T17:11:38.076Z,20.80
2018-11-01T17:14:06.368Z,20.50
2018-11-01T17:16:35.140Z,20.53
2018-11-01T17:19:03.392Z,25.07
2018-11-01T17:21:31.632Z,23.67
2018-11-01T17:23:59.880Z,28.20
2018-11-01T17:26:28.103Z,26.03
2018-11-01T17:28:56.358Z,25.33
2018-11-01T17:31:24.613Z,24.00
2018-11-01T17:33:52.886Z,23.77
2018-11-01T17:36:21.149Z,22.03
2018-11-01T17:38:49.396Z,23.53
2018-11-01T17:41:17.665Z,24.43
2018-11-01T17:43:45.976Z,23.03
2018-11-01T17:46:14.311Z,26.07
2018-11-01T17:48:42.424Z,24.10
2018-11-01T17:51:10.714Z,24.10
2018-11-01T17:53:38.952Z,21.60
2018-11-01T17:56:07.230Z,21.77
2018-11-01T17:58:35.457Z,20.73
2018-11-01T18:01:03.710Z,21.77
2018-11-01T18:03:31.953Z,23.07
2018-11-01T18:06:00.200Z,21.73
2018-11-01T18:08:28.562Z,20.30
2018-11-01T18:10:56.731Z,21.23
2018-11-01T18:13:25.068Z,18.40
2018-11-01T18:15:53.337Z,18.13
2018-11-01T18:18:21.572Z,18.10
2018-11-01T18:20:49.840Z,22.37
2018-11-01T18:23:18.093Z,22.17
2018-11-01T18:25:50.067Z,23.47
2018-11-01T18:28:19.188Z,23.33
2018-11-01T18:30:47.484Z,23.87
2018-11-01T18:33:15.807Z,25.03
2018-11-01T18:35:44.068Z,25.23
2018-11-01T18:38:12.351Z,37.40
2018-11-01T18:40:40.609Z,33.63
2018-11-01T18:43:08.852Z,33.23
2018-11-01T18:45:37.104Z,34.07
2018-11-01T18:48:05.507Z,31.33
2018-11-01T18:50:33.760Z,33.70
2018-11-01T18:53:01.990Z,29.03
2018-11-01T18:55:30.252Z,29.00
2018-11-01T18:57:58.500Z,27.80
2018-11-01T19:00:26.786Z,26.47
2018-11-01T19:02:55.009Z,26.13
2018-11-01T19:05:23.280Z,25.50
2018-11-01T19:07:51.509Z,23.53
2018-11-01T19:10:19.744Z,23.60
2018-11-01T19:12:48.004Z,23.03
2018-11-01T19:15:16.663Z,24.07
2018-11-01T19:17:44.850Z,22.30
2018-11-01T19:20:13.563Z,22.10
2018-11-01T19:22:41.815Z,21.50
2018-11-01T19:25:10.528Z,22.53
2018-11-01T19:27:38.959Z,24.47
2018-11-01T19:30:08.400Z,22.07
2018-11-01T19:32:36.668Z,21.97
2018-11-01T19:35:05.789Z,18.63
2018-11-01T19:37:34.048Z,17.83
2018-11-01T19:40:02.377Z,18.73
2018-11-01T19:42:30.589Z,19.60
2018-11-01T19:44:58.840Z,18.37
2018-11-01T19:47:27.103Z,18.80
2018-11-01T19:49:55.336Z,18.93
2018-11-01T19:52:23.596Z,22.43
2018-11-01T19:54:51.937Z,21.20
2018-11-01T19:57:20.100Z,21.30
2018-11-01T19:59:48.333Z,19.33
2018-11-01T20:02:16.590Z,15.77
2018-11-01T20:04:44.822Z,15.20
2018-11-01T20:07:13.067Z,13.40
2018-11-01T20:09:41.312Z,12.53
2018-11-01T20:12:09.592Z,11.97
2018-11-01T20:14:37.866Z,9.77
2018-11-01T20:17:06.629Z,8.47
2018-11-01T20:19:34.997Z,7.97
2018-11-01T20:22:03.156Z,8.27
2018-11-01T20:24:31.385Z,7.43
2018-11-01T20:26:59.621Z,7.90
2018-11-01T20:29:27.840Z,7.03
2018-11-01T20:31:56.132Z,8.27
2018-11-01T20:34:24.353Z,6.03
2018-11-01T20:36:52.584Z,5.97
2018-11-01T20:39:20.848Z,7.33
2018-11-01T20:41:49.096Z,6.47
2018-11-01T20:46:50.949Z,6.23
2018-11-01T20:49:19.196Z,5.87
2018-11-01T20:51:47.433Z,6.37
2018-11-01T20:54:15.684Z,6.23
2018-11-01T20:56:43.945Z,5.80
2018-11-01T20:59:12.201Z,6.30
2018-11-01T21:01:40.436Z,5.80
2018-11-01T21:04:08.704Z,5.97
2018-11-01T21:06:36.953Z,5.27
2018-11-01T21:09:08.137Z,5.93
2018-11-01T21:11:36.490Z,6.17
2018-11-01T21:14:04.897Z,4.53
2018-11-01T21:16:33.161Z,5.33
2018-11-01T21:19:01.433Z,6.23
2018-11-01T21:21:29.675Z,5.80
2018-11-01T21:23:57.953Z,6.33
2018-11-01T21:26:26.201Z,5.90
2018-11-01T21:28:54.502Z,5.67
2018-11-01T21:31:22.733Z,5.60
2018-11-01T21:33:51.032Z,5.63
2018-11-01T21:36:19.261Z,5.33
2018-11-01T21:38:47.520Z,5.20
